Rechercher aéroport 
image banner adimage banner adimage banner ad
image banner ad

KVCV - Southern California Logistics

Situé à Victorville, United States

ICAO - VCV, IATA - VCV

Données fournies par Airmate  

Information générale

Coordonnées: N34°35'51" W117°22'59"
Élévation : 2885 feet MSL.
Variation magnétique : 14° East
Voir autres Aéroports à California

Données opérationnelles

Special qualification required
Heure actuelle UTC:
Heure actuelle locale:
Météo
METAR: KVCV 251545Z 08006KT 10SM CLR 28/04 A3005
Voir NOTAMs / SUP AIP / TFR affectant cet aéroport [VIEW]
Fréquences de communication: [VIEW]

Pistes:

Identifiant RWYQFULongueur (ft)Largeur (ft)SurfaceLDA (ft)
0345°9138150OTHER9138
21225°9138150OTHER9138
17180°15050150OTHER15050
35360°15050150OTHER15050

Coordonnées de l'aéroport

Adresse: Victorville United States

Vue satellite de KVCV